Time;durP1;ratioP1;P1;durP2;ratioP2;P2;SDS_P1;SDS_P2;PMS_P1;PMS_P2;Temp;Humidity;BMP_temperature;BMP_pressure;BME280_temperature;BME280_humidity;BME280_pressure;Samples;Min_cycle;Max_cycle;Signal;HPM_P1;HPM_P2
2022/08/30 00:03:11;;;;;;;9.03;7.35;;;;;;;17.53;69.57;100461.80;1640886;86;28033;-74
2022/08/30 00:05:39;;;;;;;9.58;7.03;;;;;;;17.51;69.55;100460.78;1640998;86;25870;-74
2022/08/30 00:08:06;;;;;;;10.80;7.70;;;;;;;17.49;70.04;100463.08;1642273;86;25812;-75
2022/08/30 00:10:33;;;;;;;9.53;7.53;;;;;;;17.48;70.13;100462.84;1623068;85;25915;-75
2022/08/30 00:13:00;;;;;;;12.18;7.37;;;;;;;17.46;70.10;100461.04;1632298;86;25566;-75
2022/08/30 00:15:28;;;;;;;9.35;7.53;;;;;;;17.42;70.22;100467.55;1637440;86;27391;-74
2022/08/30 00:17:55;;;;;;;8.98;7.40;;;;;;;17.39;70.28;100464.18;1634500;86;25920;-74
2022/08/30 00:20:26;;;;;;;12.43;8.08;;;;;;;17.35;70.28;100462.72;1638651;86;25783;-74
2022/08/30 00:22:53;;;;;;;8.10;6.97;;;;;;;17.32;70.69;100454.63;1642751;86;25665;-74
2022/08/30 00:25:19;;;;;;;13.65;7.35;;;;;;;17.30;70.57;100454.78;1631149;86;25728;-74
2022/08/30 00:27:47;;;;;;;10.35;7.62;;;;;;;17.28;70.70;100457.05;1617901;86;27238;-75
2022/08/30 00:30:16;;;;;;;10.45;7.53;;;;;;;17.26;70.85;100457.97;1629776;86;25731;-74
2022/08/30 00:32:43;;;;;;;9.73;7.50;;;;;;;17.23;71.24;100463.58;1635123;86;25915;-74
2022/08/30 00:35:13;;;;;;;10.75;8.28;;;;;;;17.22;71.41;100462.56;1637643;86;26173;-74
2022/08/30 00:37:41;;;;;;;12.45;8.90;;;;;;;17.20;71.54;100455.26;1640152;85;25708;-75
2022/08/30 00:40:11;;;;;;;10.13;8.23;;;;;;;17.16;71.68;100461.45;1646394;85;27405;-74
2022/08/30 00:42:38;;;;;;;;;;;;;;;17.14;71.84;100452.00;1645744;86;25809;-75
2022/08/30 00:45:22;;;;;;;13.50;8.68;;;;;;;17.14;72.06;100458.83;1630820;86;26468;-75
2022/08/30 00:47:49;;;;;;;11.78;8.10;;;;;;;17.10;72.15;100455.22;1641869;86;25821;-75
2022/08/30 00:50:20;;;;;;;11.78;8.90;;;;;;;17.08;72.11;100455.56;1629484;86;25778;-75
2022/08/30 00:52:50;;;;;;;11.20;8.30;;;;;;;17.05;72.47;100458.98;1644162;86;27403;-75
2022/08/30 00:55:18;;;;;;;12.33;9.10;;;;;;;17.04;72.51;100454.66;1618927;86;25702;-73
2022/08/30 00:57:46;;;;;;;11.50;8.98;;;;;;;17.00;72.80;100453.77;1635090;86;25917;-74
2022/08/30 01:00:15;;;;;;;10.82;8.65;;;;;;;16.98;73.35;100451.97;1637524;86;25768;-74
2022/08/30 01:02:42;;;;;;;13.22;8.78;;;;;;;16.97;73.04;100455.28;1616520;87;25424;-74
2022/08/30 01:05:11;;;;;;;14.93;8.63;;;;;;;16.95;73.18;100460.27;1634329;86;27399;-74
2022/08/30 01:07:38;;;;;;;;;;;;;;;16.95;73.06;100458.13;1642034;86;25965;-73
2022/08/30 01:10:09;;;;;;;10.93;9.70;;;;;;;16.96;73.52;100459.72;1640193;86;25682;-76
2022/08/30 01:12:38;;;;;;;15.75;10.53;;;;;;;16.93;73.37;100457.68;1626669;86;25783;-74
2022/08/30 01:15:06;;;;;;;10.75;8.20;;;;;;;16.93;73.22;100468.03;1632312;86;29494;-75
2022/08/30 01:17:33;;;;;;;12.90;9.10;;;;;;;16.93;73.30;100459.83;1634090;86;27391;-75
2022/08/30 01:20:04;;;;;;;16.05;9.55;;;;;;;16.92;73.42;100465.64;1641481;86;25862;-75
2022/08/30 01:22:53;;;;;;;12.28;8.90;;;;;;;16.92;73.29;100462.91;1639893;85;25756;-75
2022/08/30 01:25:22;;;;;;;;;;;;;;;16.91;73.42;100464.86;1630548;86;25683;-75
2022/08/30 01:27:57;;;;;;;12.05;8.10;;;;;;;16.90;73.97;100465.98;1632453;86;25725;-76
2022/08/30 01:30:24;;;;;;;13.78;8.73;;;;;;;16.87;73.52;100465.31;1639674;85;27357;-75
2022/08/30 01:32:58;;;;;;;15.20;9.20;;;;;;;16.86;73.75;100468.41;1624171;87;25881;-75
2022/08/30 01:35:26;;;;;;;12.93;8.80;;;;;;;16.84;73.75;100466.55;1639177;86;25726;-75
2022/08/30 01:37:53;;;;;;;12.23;8.68;;;;;;;16.83;73.91;100459.52;1634181;86;26628;-74
2022/08/30 01:40:20;;;;;;;11.83;8.70;;;;;;;16.81;73.77;100459.85;1634721;86;25724;-75
2022/08/30 01:42:46;;;;;;;16.75;9.28;;;;;;;16.78;73.66;100458.59;1639936;86;28123;-74
2022/08/30 01:45:13;;;;;;;14.28;8.98;;;;;;;16.76;74.15;100460.09;1640345;85;25807;-75
2022/08/30 01:47:40;;;;;;;10.55;9.38;;;;;;;16.75;74.23;100456.58;1636326;86;25881;-75
2022/08/30 01:50:09;;;;;;;12.75;8.88;;;;;;;16.71;74.45;100465.23;1626228;86;25738;-75
2022/08/30 01:52:36;;;;;;;9.50;8.48;;;;;;;16.69;74.44;100464.00;1641208;86;25707;-75
2022/08/30 01:55:05;;;;;;;14.80;9.58;;;;;;;16.66;74.34;100469.56;1632030;86;27372;-75
2022/08/30 01:57:32;;;;;;;12.05;8.53;;;;;;;16.65;74.46;100470.70;1594317;86;26331;-75
2022/08/30 01:59:58;;;;;;;11.12;9.10;;;;;;;16.65;74.49;100465.81;1641246;86;25820;-75
2022/08/30 02:02:27;;;;;;;15.15;8.80;;;;;;;16.62;74.69;100464.00;1645530;85;26246;-75
2022/08/30 02:04:56;;;;;;;13.22;8.38;;;;;;;16.63;74.74;100467.52;1641039;86;25432;-75
2022/08/30 02:07:23;;;;;;;8.88;7.92;;;;;;;16.60;74.88;100457.28;1631407;86;27421;-75
2022/08/30 02:09:51;;;;;;;14.03;9.05;;;;;;;16.59;74.97;100466.63;1643565;86;25939;-75
2022/08/30 02:12:18;;;;;;;11.15;8.58;;;;;;;16.57;74.93;100462.09;1635210;86;25719;-75
2022/08/30 02:14:44;;;;;;;14.50;8.60;;;;;;;16.55;74.79;100459.70;1641003;86;25719;-75
2022/08/30 02:17:13;;;;;;;11.80;8.88;;;;;;;16.54;74.73;100461.41;1637465;86;26952;-75
2022/08/30 02:19:41;;;;;;;10.60;8.20;;;;;;;16.52;74.82;100467.22;1636572;86;27406;-75
2022/08/30 02:22:08;;;;;;;13.03;8.63;;;;;;;16.51;74.77;100462.09;1634771;86;25924;-75
2022/08/30 02:24:34;;;;;;;13.03;8.40;;;;;;;16.48;74.92;100466.88;1636533;86;25402;-74
2022/08/30 02:27:01;;;;;;;11.73;8.48;;;;;;;16.47;75.12;100465.30;1635687;84;25916;-74
2022/08/30 02:29:28;;;;;;;11.30;9.05;;;;;;;16.43;75.17;100464.63;1634925;86;25459;-74
2022/08/30 02:31:54;;;;;;;11.43;10.20;;;;;;;16.41;75.42;100469.64;1608076;86;27309;-75
2022/08/30 02:34:20;;;;;;;10.85;9.08;;;;;;;16.40;75.75;100468.61;1635738;86;25658;-75
2022/08/30 02:36:47;;;;;;;14.68;9.30;;;;;;;16.36;75.74;100471.78;1640870;86;25744;-75
2022/08/30 02:39:14;;;;;;;11.68;9.10;;;;;;;16.34;75.58;100471.34;1635709;86;25672;-75
2022/08/30 02:41:41;;;;;;;13.30;8.50;;;;;;;16.31;75.54;100466.02;1635827;85;25603;-75
2022/08/30 02:44:09;;;;;;;12.50;9.83;;;;;;;16.30;75.53;100472.60;1608096;88;28015;-75
2022/08/30 02:46:37;;;;;;;12.50;8.83;;;;;;;16.28;75.65;100470.79;1634288;86;25774;-75
2022/08/30 02:49:04;;;;;;;15.05;9.00;;;;;;;16.27;75.52;100471.13;1630325;85;25426;-75
2022/08/30 02:51:31;;;;;;;13.18;9.53;;;;;;;16.25;75.73;100472.84;1633113;86;26383;-75
2022/08/30 02:53:57;;;;;;;13.58;8.78;;;;;;;16.22;75.58;100477.61;1639092;86;25831;-75
2022/08/30 02:56:23;;;;;;;12.95;9.33;;;;;;;16.19;75.70;100480.47;1631633;86;27324;-74
2022/08/30 02:58:49;;;;;;;12.73;9.25;;;;;;;16.16;75.67;100479.78;1645956;86;25728;-75
2022/08/30 03:01:17;;;;;;;18.02;9.18;;;;;;;16.14;76.12;100478.52;1639992;86;25829;-74
2022/08/30 03:03:45;;;;;;;12.65;9.55;;;;;;;16.10;76.07;100474.31;1635766;86;25712;-74
2022/08/30 03:06:13;;;;;;;11.08;9.63;;;;;;;16.08;76.59;100473.08;1620207;86;25772;-75
2022/08/30 03:08:40;;;;;;;15.43;9.53;;;;;;;16.05;76.84;100475.33;1636943;85;27903;-75
2022/08/30 03:11:07;;;;;;;20.57;9.75;;;;;;;16.02;76.66;100481.50;1639312;86;25901;-75
2022/08/30 03:13:33;;;;;;;13.35;9.08;;;;;;;16.00;77.09;100486.47;1624880;86;25825;-74
2022/08/30 03:15:59;;;;;;;15.43;9.28;;;;;;;15.99;76.62;100482.75;1639363;86;25890;-74
2022/08/30 03:18:25;;;;;;;14.20;10.48;;;;;;;15.96;76.70;100489.67;1638267;86;25845;-74
2022/08/30 03:20:52;;;;;;;13.05;10.10;;;;;;;15.94;77.22;100485.13;1637502;86;27320;-74
2022/08/30 03:23:18;;;;;;;15.43;9.40;;;;;;;15.91;77.31;100489.89;1641205;86;25736;-74
2022/08/30 03:25:45;;;;;;;14.18;9.80;;;;;;;15.89;77.02;100495.47;1638046;85;25681;-74
2022/08/30 03:28:11;;;;;;;13.93;10.10;;;;;;;15.86;77.22;100499.09;1641072;86;25846;-74
2022/08/30 03:30:37;;;;;;;11.28;9.33;;;;;;;15.85;77.71;100495.33;1610640;88;25504;-73
2022/08/30 03:33:04;;;;;;;12.20;9.73;;;;;;;15.83;77.55;100500.34;1609945;88;27341;-73
2022/08/30 03:35:30;;;;;;;15.43;10.40;;;;;;;15.81;77.83;100502.03;1602708;88;25493;-73
2022/08/30 03:37:58;;;;;;;12.85;9.45;;;;;;;15.81;77.94;100499.30;1602937;87;25861;-73
2022/08/30 03:40:24;;;;;;;10.82;8.38;;;;;;;15.80;77.74;100493.64;1589653;89;25730;-74
2022/08/30 03:42:51;;;;;;;15.53;10.10;;;;;;;15.79;77.54;100496.70;1583508;89;25784;-74
2022/08/30 03:45:18;;;;;;;13.55;9.73;;;;;;;15.77;77.52;100493.53;1593722;89;27397;-73
2022/08/30 03:47:45;;;;;;;13.28;9.15;;;;;;;15.74;77.76;100488.14;1578791;89;26528;-71
2022/08/30 03:50:14;;;;;;;12.33;10.05;;;;;;;15.71;78.06;100486.08;1634148;86;25737;-73
2022/08/30 03:52:41;;;;;;;13.28;10.28;;;;;;;15.69;77.80;100493.81;1635052;86;25720;-73
2022/08/30 03:55:08;;;;;;;15.00;9.75;;;;;;;15.67;78.19;100491.42;1611544;88;25925;-73
2022/08/30 03:57:34;;;;;;;14.10;9.83;;;;;;;15.65;78.11;100493.70;1635279;86;27341;-73
2022/08/30 04:00:00;;;;;;;10.48;8.90;;;;;;;15.65;78.44;100495.06;1636660;85;25508;-73
2022/08/30 04:02:27;;;;;;;11.22;9.08;;;;;;;15.64;78.38;100504.36;1637243;85;25583;-73
2022/08/30 04:04:53;;;;;;;14.63;9.55;;;;;;;15.63;78.27;100496.52;1632471;85;26229;-75
2022/08/30 04:07:19;;;;;;;12.18;9.30;;;;;;;15.63;78.36;100491.88;1633502;86;25485;-75
2022/08/30 04:09:46;;;;;;;14.05;9.98;;;;;;;15.62;78.35;100494.94;1632967;85;27399;-72
2022/08/30 04:12:12;;;;;;;14.85;9.70;;;;;;;15.62;78.83;100500.39;1640145;86;26498;-73
2022/08/30 04:14:39;;;;;;;14.78;10.20;;;;;;;15.62;78.82;100497.67;1640295;86;25819;-74
2022/08/30 04:17:05;;;;;;;12.65;9.85;;;;;;;15.62;79.06;100490.85;1638337;85;25594;-70
2022/08/30 04:19:31;;;;;;;16.80;9.83;;;;;;;15.63;79.26;100496.52;1641208;86;25607;-70
2022/08/30 04:21:58;;;;;;;14.98;10.03;;;;;;;15.63;79.22;100500.06;1637821;86;27956;-70
2022/08/30 04:24:24;;;;;;;16.27;10.40;;;;;;;15.64;79.36;100492.67;1639330;86;25638;-70
2022/08/30 04:26:50;;;;;;;12.98;10.15;;;;;;;15.65;79.68;100499.73;1636813;86;25756;-70
2022/08/30 04:29:17;;;;;;;15.75;10.72;;;;;;;15.69;79.83;100506.08;1641416;86;26175;-70
2022/08/30 04:31:44;;;;;;;14.87;10.58;;;;;;;15.72;80.18;100498.59;1634301;86;25912;-70
2022/08/30 04:34:12;;;;;;;13.43;9.90;;;;;;;15.76;80.46;100502.25;1638997;86;27332;-70
2022/08/30 04:36:39;;;;;;;13.88;10.85;;;;;;;15.81;80.65;100508.85;1638718;86;25707;-70
2022/08/30 04:39:06;;;;;;;15.63;11.03;;;;;;;15.86;81.09;100505.91;1633590;86;25760;-70
2022/08/30 04:41:33;;;;;;;14.85;11.00;;;;;;;15.92;81.24;100509.22;1638188;86;25670;-70
2022/08/30 04:44:02;;;;;;;14.28;11.33;;;;;;;15.97;81.52;100511.73;1636542;86;25596;-70
2022/08/30 04:46:29;;;;;;;20.08;10.50;;;;;;;16.02;81.58;100518.87;1615387;86;27390;-70
2022/08/30 04:48:55;;;;;;;16.07;10.63;;;;;;;16.08;81.80;100520.25;1619898;86;25828;-70
2022/08/30 04:51:22;;;;;;;13.98;11.53;;;;;;;16.13;81.61;100525.48;1631768;86;25282;-70
2022/08/30 04:53:48;;;;;;;15.13;10.00;;;;;;;16.18;81.66;100528.56;1635968;85;25644;-68
2022/08/30 04:56:21;;;;;;;13.20;10.35;;;;;;;16.22;81.77;100526.73;1638600;85;25868;-69
2022/08/30 04:58:51;;;;;;;14.98;10.20;;;;;;;16.27;81.63;100533.33;1635358;85;27341;-71
2022/08/30 05:01:24;;;;;;;16.12;10.50;;;;;;;16.31;81.55;100536.98;1641257;85;25765;-71
2022/08/30 05:03:53;;;;;;;13.95;10.05;;;;;;;16.34;81.46;100529.45;1623195;86;25668;-73
2022/08/30 05:06:23;;;;;;;14.18;9.70;;;;;;;16.36;81.33;100538.66;1639988;86;25749;-72
2022/08/30 05:08:49;;;;;;;;;;;;;;;16.38;81.39;100542.66;1642489;86;25804;-72
2022/08/30 05:11:17;;;;;;;12.13;9.63;;;;;;;16.39;81.38;100537.41;1643202;86;28121;-72
2022/08/30 05:13:45;;;;;;;13.20;9.80;;;;;;;16.41;81.35;100551.53;1642726;85;25749;-71
2022/08/30 05:16:19;;;;;;;12.53;9.43;;;;;;;16.44;81.25;100550.04;1637026;86;25822;-70
2022/08/30 05:18:49;;;;;;;11.48;8.68;;;;;;;16.47;81.08;100543.11;1642721;86;25404;-71
2022/08/30 05:21:20;;;;;;;12.28;9.68;;;;;;;16.50;81.18;100541.86;1644281;86;25905;-71
2022/08/30 05:23:48;;;;;;;11.45;9.35;;;;;;;16.54;81.24;100546.84;1611388;86;27353;-69
2022/08/30 05:26:25;;;;;;;11.20;8.23;;;;;;;16.58;81.13;100548.31;1642348;86;25613;-70
2022/08/30 05:28:52;;;;;;;10.50;7.92;;;;;;;16.61;81.04;100551.73;1643785;86;25659;-71
2022/08/30 05:31:30;;;;;;;10.60;7.85;;;;;;;16.66;80.99;100555.59;1637393;86;25622;-71
2022/08/30 05:33:56;;;;;;;13.20;8.88;;;;;;;16.68;80.84;100554.67;1637206;86;25492;-73
2022/08/30 05:36:26;;;;;;;13.03;7.62;;;;;;;16.74;81.17;100557.41;1643225;86;27342;-71
2022/08/30 05:38:54;;;;;;;8.23;7.08;;;;;;;16.79;80.93;100555.02;1619159;87;25883;-71
2022/08/30 05:41:23;;;;;;;10.98;7.70;;;;;;;16.84;80.85;100554.81;1638456;86;25742;-71
2022/08/30 05:43:53;;;;;;;12.03;6.92;;;;;;;16.91;80.75;100558.33;1635888;86;25851;-71
2022/08/30 05:46:20;;;;;;;9.93;7.05;;;;;;;16.96;80.65;100553.98;1632007;86;26460;-71
2022/08/30 05:48:48;;;;;;;13.03;6.85;;;;;;;17.03;80.69;100555.55;1635139;85;27399;-71
2022/08/30 05:51:22;;;;;;;9.95;6.67;;;;;;;17.10;80.52;100555.75;1634687;86;25846;-71
2022/08/30 05:53:50;;;;;;;7.35;6.00;;;;;;;17.16;80.31;100555.73;1632162;86;25447;-71
2022/08/30 05:56:22;;;;;;;7.58;6.00;;;;;;;17.22;80.02;100554.12;1642290;85;25689;-71
2022/08/30 05:58:48;;;;;;;7.47;6.00;;;;;;;17.28;80.10;100552.17;1616050;88;25664;-71
2022/08/30 06:01:40;;;;;;;11.08;6.22;;;;;;;17.38;79.89;100557.69;1639064;86;27879;-71
2022/08/30 06:04:09;;;;;;;9.93;5.30;;;;;;;17.44;79.52;100556.30;1641768;86;25864;-71
2022/08/30 06:06:39;;;;;;;8.25;5.03;;;;;;;17.52;79.48;100552.63;1643716;86;25704;-71
2022/08/30 06:09:08;;;;;;;8.75;5.25;;;;;;;17.62;79.40;100551.33;1647966;86;25750;-71
2022/08/30 06:11:35;;;;;;;12.60;5.05;;;;;;;17.71;79.09;100552.53;1641858;85;25842;-71
2022/08/30 06:14:03;;;;;;;8.48;5.30;;;;;;;17.81;78.74;100553.93;1644752;86;27517;-71
2022/08/30 06:16:29;;;;;;;9.45;5.25;;;;;;;17.91;78.75;100549.33;1639555;86;25680;-71
2022/08/30 06:18:58;;;;;;;7.70;4.58;;;;;;;18.02;78.38;100550.98;1642387;85;25877;-71
2022/08/30 06:21:31;;;;;;;9.03;4.55;;;;;;;18.13;77.62;100549.29;1637888;86;25754;-72
2022/08/30 06:23:57;;;;;;;6.90;4.17;;;;;;;18.27;78.26;100548.28;1635533;86;25507;-72
2022/08/30 06:26:25;;;;;;;15.60;9.95;;;;;;;18.44;77.78;100549.06;1649022;86;27332;-72
2022/08/30 06:28:52;;;;;;;6.83;4.12;;;;;;;18.60;77.82;100555.28;1642837;86;25425;-72
2022/08/30 06:31:21;;;;;;;7.40;3.60;;;;;;;18.74;77.13;100550.70;1638750;85;25784;-71
2022/08/30 06:33:49;;;;;;;4.67;3.50;;;;;;;18.83;76.06;100560.92;1642432;86;25866;-71
2022/08/30 06:36:22;;;;;;;7.67;3.40;;;;;;;19.01;75.92;100564.03;1636129;86;25753;-71
2022/08/30 06:38:53;;;;;;;6.80;3.10;;;;;;;19.26;76.24;100562.95;1632289;86;27356;-72
2022/08/30 06:41:23;;;;;;;5.50;3.00;;;;;;;19.52;75.81;100563.66;1645159;85;25356;-72
2022/08/30 06:43:50;;;;;;;6.30;3.42;;;;;;;19.73;75.15;100570.12;1642992;85;25757;-72
2022/08/30 06:46:27;;;;;;;5.17;3.35;;;;;;;19.93;74.78;100562.66;1635532;86;26774;-72
2022/08/30 06:48:56;;;;;;;6.03;3.25;;;;;;;20.06;73.39;100569.55;1630216;86;25651;-72
2022/08/30 06:51:30;;;;;;;7.80;3.57;;;;;;;20.14;72.73;100571.83;1630598;86;27511;-72
2022/08/30 06:53:58;;;;;;;5.67;3.05;;;;;;;20.18;71.84;100572.70;1643798;85;25861;-72
2022/08/30 06:56:24;;;;;;;5.45;3.12;;;;;;;20.17;71.42;100573.84;1639962;85;25841;-71
2022/08/30 06:58:52;;;;;;;2.98;2.60;;;;;;;20.13;70.77;100582.02;1635102;85;25706;-71
2022/08/30 07:01:23;;;;;;;5.65;2.55;;;;;;;20.12;70.84;100583.77;1621565;86;25537;-70
2022/08/30 07:03:50;;;;;;;4.12;2.40;;;;;;;20.12;70.75;100581.02;1636281;85;27644;-71
2022/08/30 07:06:18;;;;;;;3.92;1.92;;;;;;;20.12;70.41;100592.00;1636798;85;25797;-72
2022/08/30 07:08:46;;;;;;;3.42;2.17;;;;;;;20.08;69.86;100593.91;1641216;85;25660;-71
2022/08/30 07:11:13;;;;;;;3.30;2.62;;;;;;;20.02;69.70;100594.77;1639016;86;25901;-71
2022/08/30 07:13:39;;;;;;;3.10;2.55;;;;;;;19.94;69.50;100598.57;1642658;85;25520;-72
2022/08/30 07:16:12;;;;;;;3.83;2.40;;;;;;;19.91;69.53;100599.30;1638180;85;27973;-72
2022/08/30 07:18:50;;;;;;;4.40;2.30;;;;;;;19.87;69.49;100606.09;1622677;85;25925;-72
2022/08/30 07:21:27;;;;;;;4.28;2.55;;;;;;;19.87;69.82;100609.40;1629822;86;25705;-72
2022/08/30 07:23:57;;;;;;;2.40;2.20;;;;;;;19.87;69.56;100607.47;1643181;86;26421;-72
2022/08/30 07:26:33;;;;;;;3.92;2.50;;;;;;;19.87;69.65;100606.09;1643692;86;25634;-72
2022/08/30 07:29:01;;;;;;;5.70;3.80;;;;;;;19.87;69.70;100610.77;1642945;86;27394;-71
2022/08/30 07:31:29;;;;;;;6.85;3.15;;;;;;;19.95;70.00;100616.05;1649750;85;26359;-72
2022/08/30 07:33:56;;;;;;;4.40;2.98;;;;;;;20.05;70.16;100604.23;1639738;86;25577;-71
2022/08/30 07:36:24;;;;;;;4.00;2.25;;;;;;;20.12;69.62;100604.36;1619919;86;25647;-72
2022/08/30 07:38:51;;;;;;;3.02;2.40;;;;;;;20.18;69.06;100604.27;1643980;85;25795;-73
2022/08/30 07:41:28;;;;;;;4.25;2.37;;;;;;;20.28;69.40;100605.63;1640849;85;27422;-72
2022/08/30 07:43:56;;;;;;;4.75;2.20;;;;;;;20.35;68.92;100611.22;1649150;85;25597;-72
2022/08/30 07:46:23;;;;;;;3.08;2.17;;;;;;;20.40;68.71;100613.66;1645781;85;25858;-72
2022/08/30 07:48:50;;;;;;;3.20;2.15;;;;;;;20.44;68.27;100617.83;1634737;85;26206;-72
2022/08/30 07:51:21;;;;;;;3.55;2.00;;;;;;;20.43;67.62;100628.04;1631272;86;25670;-72
2022/08/30 07:53:48;;;;;;;5.87;2.62;;;;;;;20.41;67.64;100626.22;1631558;86;27390;-71
2022/08/30 07:56:15;;;;;;;2.83;2.40;;;;;;;20.38;67.56;100624.23;1636780;85;25761;-72
2022/08/30 07:58:42;;;;;;;6.37;1.90;;;;;;;20.39;67.71;100621.67;1643116;85;25641;-72
2022/08/30 08:01:11;;;;;;;5.70;2.50;;;;;;;20.42;67.77;100618.79;1621954;86;26183;-71
2022/08/30 08:03:39;;;;;;;6.90;3.02;;;;;;;20.46;67.79;100624.53;1634018;85;25581;-72
2022/08/30 08:06:08;;;;;;;5.87;3.02;;;;;;;20.49;67.13;100628.52;1643853;86;26856;-71
2022/08/30 08:08:36;;;;;;;6.62;3.27;;;;;;;20.46;67.32;100628.66;1639754;86;33135;-72
2022/08/30 08:11:09;;;;;;;5.17;3.20;;;;;;;20.55;67.58;100628.98;1644743;85;25471;-71
2022/08/30 08:13:36;;;;;;;8.73;3.50;;;;;;;20.62;67.42;100627.19;1642781;86;25759;-72
2022/08/30 08:16:03;;;;;;;4.47;3.62;;;;;;;20.70;67.35;100632.19;1636647;86;25746;-72
2022/08/30 08:18:30;;;;;;;4.22;3.17;;;;;;;20.75;67.50;100635.22;1624502;86;27971;-72
2022/08/30 08:20:58;;;;;;;8.78;3.30;;;;;;;20.80;66.75;100635.68;1640110;85;25782;-72
2022/08/30 08:23:25;;;;;;;3.47;2.72;;;;;;;20.84;66.81;100632.98;1645277;85;25901;-72
2022/08/30 08:25:51;;;;;;;5.78;3.58;;;;;;;20.80;66.40;100629.40;1651344;84;25615;-72
2022/08/30 08:28:18;;;;;;;6.22;4.30;;;;;;;20.83;66.64;100636.31;1647409;85;25778;-72
2022/08/30 08:30:45;;;;;;;5.78;3.75;;;;;;;20.90;66.94;100642.50;1643593;86;26781;-72
2022/08/30 08:33:16;;;;;;;3.40;3.10;;;;;;;20.98;66.51;100640.66;1614776;86;25792;-72
2022/08/30 08:35:40;;;;;;;4.53;2.87;;;;;;;21.02;66.72;100639.53;1644267;85;25464;-72
2022/08/30 08:38:06;;;;;;;4.05;3.37;;;;;;;21.18;66.53;100642.12;1639487;85;25786;-72
2022/08/30 08:40:38;;;;;;;4.55;2.33;;;;;;;21.28;66.16;100639.27;1641644;85;25833;-72
2022/08/30 08:43:14;;;;;;;4.17;2.17;;;;;;;21.36;66.12;100645.08;1608533;87;28031;-71
2022/08/30 08:45:55;;;;;;;5.20;2.60;;;;;;;21.45;65.49;100644.80;1622804;86;25808;-71
2022/08/30 08:48:35;;;;;;;3.45;1.87;;;;;;;21.48;65.12;100648.20;1599353;87;25880;-72
2022/08/30 08:53:53;;;;;;;6.17;2.37;;;;;;;21.48;64.29;100650.95;1605573;87;26019;-71
2022/08/30 08:56:21;;;;;;;4.12;1.50;;;;;;;21.49;64.20;100645.67;1599651;89;27619;-72
2022/08/30 08:58:55;;;;;;;3.42;1.62;;;;;;;21.43;64.24;100647.91;1600538;87;26148;-72
2022/08/30 09:01:26;;;;;;;6.58;1.75;;;;;;;21.49;64.53;100652.55;1621764;87;25754;-71
2022/08/30 09:03:54;;;;;;;2.30;1.57;;;;;;;21.51;64.18;100648.05;1611087;87;25777;-72
2022/08/30 09:06:31;;;;;;;3.90;1.77;;;;;;;21.51;64.12;100646.09;1610960;87;25507;-71
2022/08/30 09:08:58;;;;;;;3.83;2.35;;;;;;;21.52;64.04;100650.44;1596713;87;27353;-70
2022/08/30 09:11:29;;;;;;;5.95;1.87;;;;;;;21.51;63.74;100650.81;1616817;87;25583;-70
2022/08/30 09:13:55;;;;;;;2.47;1.82;;;;;;;21.52;64.04;100651.81;1601641;87;25691;-71
2022/08/30 09:16:53;;;;;;;4.25;1.80;;;;;;;21.60;64.21;100660.34;1612948;87;26350;-71
2022/08/30 09:19:37;;;;;;;2.95;1.47;;;;;;;21.61;63.64;100655.05;1602466;87;25717;-73
2022/08/30 09:22:36;;;;;;;3.37;1.57;;;;;;;21.71;64.18;100658.29;1643613;85;27401;-72
2022/08/30 09:25:20;;;;;;;2.37;1.35;;;;;;;21.98;65.05;100652.91;1634843;86;25946;-72
2022/08/30 09:27:49;;;;;;;6.72;3.47;;;;;;;22.30;63.80;100652.42;1639334;85;25858;-72
2022/08/30 09:30:26;;;;;;;4.62;1.52;;;;;;;22.33;61.96;100653.64;1635939;85;35361;-72
2022/08/30 09:33:00;;;;;;;2.08;1.40;;;;;;;22.22;61.71;100654.90;1636768;86;26003;-73
2022/08/30 09:35:45;;;;;;;2.75;1.40;;;;;;;22.08;61.62;100656.12;1628409;85;27920;-73
2022/08/30 09:38:34;;;;;;;3.35;1.37;;;;;;;22.07;62.53;100653.19;1629775;85;25735;-72
2022/08/30 09:41:04;;;;;;;;;;;;;;;22.14;61.91;100660.13;1622054;86;25661;-72
2022/08/30 09:43:33;;;;;;;3.42;1.62;;;;;;;22.09;61.23;100665.98;1633890;86;26234;-71
2022/08/30 09:46:05;;;;;;;2.83;1.60;;;;;;;21.97;61.41;100662.32;1642275;85;25738;-71
2022/08/30 09:48:43;;;;;;;6.65;1.47;;;;;;;21.98;61.95;100662.54;1643881;86;27486;-72
2022/08/30 09:51:28;;;;;;;3.10;1.62;;;;;;;21.98;61.93;100663.10;1635454;86;25794;-71
2022/08/30 09:54:15;;;;;;;3.15;1.60;;;;;;;21.99;61.81;100665.48;1637089;85;25850;-70
2022/08/30 09:57:08;;;;;;;2.25;1.22;;;;;;;21.93;61.49;100663.45;1636864;85;26760;-70
2022/08/30 10:00:08;;;;;;;2.47;1.40;;;;;;;21.93;61.74;100664.82;1633521;85;25865;-71
2022/08/30 10:02:48;;;;;;;1.55;1.10;;;;;;;21.98;61.94;100661.16;1634407;85;27406;-72
2022/08/30 10:05:31;;;;;;;4.53;1.55;;;;;;;22.09;62.09;100663.23;1618823;85;25823;-72
2022/08/30 10:08:06;;;;;;;3.95;1.40;;;;;;;22.09;61.30;100655.75;1635862;85;25870;-72
2022/08/30 10:10:51;;;;;;;2.30;1.20;;;;;;;22.08;61.29;100662.42;1633653;85;25895;-71
2022/08/30 10:13:43;;;;;;;2.17;1.10;;;;;;;22.15;61.10;100662.52;1644368;85;25740;-71
2022/08/30 10:16:24;;;;;;;3.83;1.17;;;;;;;22.15;61.43;100668.02;1646796;85;27371;-72
2022/08/30 10:19:04;;;;;;;2.92;1.15;;;;;;;22.22;61.25;100659.03;1638869;86;26168;-73
2022/08/30 10:21:45;;;;;;;4.60;1.20;;;;;;;22.31;61.37;100665.63;1604566;86;25845;-72
2022/08/30 10:24:19;;;;;;;3.95;1.20;;;;;;;22.40;61.36;100662.55;1617282;88;25921;-72
2022/08/30 10:26:56;;;;;;;2.98;1.17;;;;;;;22.50;60.24;100664.61;1650346;85;25947;-71
2022/08/30 10:29:31;;;;;;;1.45;1.00;;;;;;;22.44;59.86;100664.73;1642024;85;27527;-71
2022/08/30 10:32:09;;;;;;;2.10;1.20;;;;;;;22.33;59.25;100666.82;1640757;85;25455;-72
2022/08/30 10:34:45;;;;;;;2.42;1.10;;;;;;;22.24;59.93;100661.41;1648496;85;26482;-72
2022/08/30 10:37:28;;;;;;;2.60;1.20;;;;;;;22.22;60.05;100667.30;1644103;85;25755;-72
2022/08/30 10:41:11;;;;;;;2.40;1.00;;;;;;;22.23;60.15;100673.00;1642374;85;25772;-71
2022/08/30 10:42:34;;;;;;;3.83;1.20;;;;;;;22.19;60.06;100675.72;1639495;86;27348;-72
2022/08/30 10:45:09;;;;;;;5.70;1.10;;;;;;;22.13;60.01;100677.81;1639296;85;33984;-72
2022/08/30 10:47:50;;;;;;;3.95;2.50;;;;;;;22.04;60.02;100676.75;1653646;85;25739;-71
2022/08/30 10:50:21;;;;;;;2.05;1.10;;;;;;;21.96;60.12;100675.09;1638241;86;27764;-73
2022/08/30 10:53:05;;;;;;;1.22;1.00;;;;;;;21.90;60.38;100676.02;1622545;86;25484;-76
2022/08/30 10:55:43;;;;;;;1.65;1.10;;;;;;;21.86;60.71;100674.39;1623246;86;28109;-75
2022/08/30 10:58:07;;;;;;;2.35;1.10;;;;;;;21.81;60.54;100668.06;1638763;85;25891;-75
2022/08/30 11:01:20;;;;;;;1.37;1.02;;;;;;;21.80;60.96;100673.95;1647834;85;25677;-76
2022/08/30 11:04:32;;;;;;;1.92;0.90;;;;;;;21.84;61.05;100673.39;1640105;86;25747;-75
2022/08/30 11:07:29;;;;;;;4.55;1.40;;;;;;;21.87;60.83;100671.27;1637623;85;25500;-72
2022/08/30 11:10:37;;;;;;;2.58;1.20;;;;;;;21.88;60.64;100670.11;1623423;86;27300;-72
2022/08/30 11:13:20;;;;;;;1.90;1.30;;;;;;;21.89;60.58;100663.41;1635709;85;25446;-72
2022/08/30 11:16:07;;;;;;;2.60;1.27;;;;;;;21.90;60.53;100673.86;1639097;86;25794;-73
2022/08/30 11:18:53;;;;;;;1.00;1.00;;;;;;;21.85;60.33;100670.85;1654473;85;25761;-75
2022/08/30 11:21:36;;;;;;;2.62;1.30;;;;;;;21.80;60.33;100677.48;1632040;86;25791;-74
2022/08/30 11:24:11;;;;;;;3.58;1.47;;;;;;;21.80;60.65;100678.08;1631575;86;27348;-75
2022/08/30 11:26:50;;;;;;;2.08;0.85;;;;;;;21.85;60.81;100673.61;1651466;85;25743;-73
2022/08/30 11:29:33;;;;;;;5.58;1.40;;;;;;;21.91;60.73;100673.45;1636401;85;25699;-74
2022/08/30 11:32:17;;;;;;;2.87;1.10;;;;;;;21.95;60.14;100670.17;1633542;85;25686;-71
2022/08/30 11:34:57;;;;;;;2.00;1.15;;;;;;;21.98;60.23;100668.61;1631637;86;25524;-73
2022/08/30 11:37:43;;;;;;;3.67;1.52;;;;;;;22.03;60.23;100668.27;1640179;85;27952;-73
2022/08/30 11:40:27;;;;;;;2.85;1.10;;;;;;;22.13;60.37;100666.80;1642117;85;25736;-72
2022/08/30 11:42:55;;;;;;;2.30;1.00;;;;;;;22.26;60.01;100681.89;1632940;86;25596;-72
2022/08/30 11:45:27;;;;;;;4.42;1.30;;;;;;;22.36;59.95;100677.68;1637976;86;25993;-73